createdAt,value
2018-04-11T00:02:18.938Z,83.10
2018-04-11T00:04:48.512Z,84.10
2018-04-11T00:07:24.249Z,84.20
2018-04-11T00:09:53.190Z,85.20
2018-04-11T00:12:23.102Z,85.60
2018-04-11T00:14:53.360Z,86.40
2018-04-11T00:17:26.845Z,86.60
2018-04-11T00:22:28.210Z,86.30
2018-04-11T00:24:57.894Z,86.20
2018-04-11T00:29:57.549Z,87.40
2018-04-11T00:32:31.437Z,87.90
2018-04-11T00:37:34.498Z,89.70
2018-04-11T00:40:03.029Z,90.00
2018-04-11T00:42:36.257Z,90.10
2018-04-11T00:45:04.862Z,90.50
2018-04-11T00:47:37.828Z,90.10
2018-04-11T00:50:07.982Z,90.60
2018-04-11T00:52:41.682Z,90.90
2018-04-11T00:57:44.487Z,90.30
2018-04-11T01:00:13.827Z,90.00
2018-04-11T01:02:46.358Z,89.60
2018-04-11T01:05:15.030Z,89.40
2018-04-11T01:07:56.821Z,89.10
2018-04-11T01:10:28.486Z,88.40
2018-04-11T01:12:58.865Z,88.70
2018-04-11T01:15:27.443Z,89.00
2018-04-11T01:20:25.849Z,89.70
2018-04-11T01:22:55.557Z,90.10
2018-04-11T01:25:24.389Z,90.30
2018-04-11T01:27:58.019Z,90.60
2018-04-11T01:30:27.342Z,90.80
2018-04-11T01:33:00.313Z,90.40
2018-04-11T01:35:29.625Z,90.30
2018-04-11T01:38:03.088Z,89.80
2018-04-11T01:40:32.670Z,89.90
2018-04-11T01:43:08.410Z,89.60
2018-04-11T01:45:37.965Z,90.00
2018-04-11T01:48:10.985Z,90.00
2018-04-11T01:50:41.181Z,90.30
2018-04-11T01:53:12.481Z,90.30
2018-04-11T01:55:41.038Z,90.20
2018-04-11T01:58:14.867Z,90.30
2018-04-11T02:00:44.043Z,90.30
2018-04-11T02:03:25.528Z,90.30
2018-04-11T02:05:54.732Z,90.40
2018-04-11T02:08:23.306Z,90.50
2018-04-11T02:10:51.916Z,90.50
2018-04-11T02:13:21.883Z,90.60
2018-04-11T02:18:23.118Z,90.40
2018-04-11T02:23:34.941Z,90.30
2018-04-11T02:26:03.917Z,90.20
2018-04-11T02:28:33.481Z,90.30
2018-04-11T02:31:02.068Z,90.50
2018-04-11T02:33:30.897Z,90.50
2018-04-11T02:35:59.854Z,90.50
2018-04-11T02:38:31.853Z,90.50
2018-04-11T02:41:01.538Z,90.90
2018-04-11T02:50:24.610Z,90.60
2018-04-11T02:52:53.253Z,90.70
2018-04-11T02:55:23.090Z,91.10
2018-04-11T02:57:51.700Z,90.90
2018-04-11T03:00:20.695Z,90.90
2018-04-11T03:02:50.041Z,90.90
2018-04-11T03:05:19.762Z,91.00
2018-04-11T03:07:49.868Z,91.10
2018-04-11T03:10:20.247Z,91.10
2018-04-11T03:12:49.605Z,91.50
2018-04-11T03:15:18.195Z,91.30
2018-04-11T03:17:51.125Z,91.30
2018-04-11T03:20:21.334Z,91.30
2018-04-11T03:22:54.409Z,91.50
2018-04-11T03:25:23.377Z,91.40
2018-04-11T03:28:04.380Z,92.20
2018-04-11T03:30:33.940Z,92.40
2018-04-11T03:33:03.346Z,91.80
2018-04-11T03:35:33.970Z,91.30
2018-04-11T03:51:18.743Z,90.60
2018-04-11T03:53:47.326Z,90.60
2018-04-11T03:58:45.851Z,90.50
2018-04-11T04:01:14.857Z,90.50
2018-04-11T04:03:43.943Z,90.70
2018-04-11T04:06:15.650Z,90.80
2018-04-11T04:08:45.022Z,90.90
2018-04-11T04:11:17.419Z,91.10
2018-04-11T04:15:57.504Z,91.20
2018-04-11T04:25:35.230Z,91.70
2018-04-11T04:28:04.955Z,91.60
2018-04-11T04:30:35.299Z,91.70
2018-04-11T04:33:04.312Z,91.70
2018-04-11T04:35:33.966Z,91.60
2018-04-11T04:40:34.012Z,92.60
2018-04-11T04:43:03.406Z,92.70
2018-04-11T04:45:33.587Z,92.60
2018-04-11T04:48:02.520Z,92.60
2018-04-11T04:50:35.052Z,92.60
2018-04-11T04:53:03.663Z,92.70
2018-04-11T04:55:36.745Z,92.70
2018-04-11T04:58:06.135Z,92.70
2018-04-11T05:00:38.963Z,92.70
2018-04-11T05:03:08.730Z,92.40
2018-04-11T05:05:41.013Z,91.90
2018-04-11T05:08:11.185Z,91.90
2018-04-11T05:10:43.843Z,91.90
2018-04-11T05:13:13.215Z,91.90
2018-04-11T05:15:47.406Z,92.00
2018-04-11T05:18:17.643Z,91.90
2018-04-11T05:20:48.976Z,91.80
2018-04-11T05:23:18.367Z,91.70
2018-04-11T05:25:51.928Z,91.60
2018-04-11T05:28:21.095Z,91.70
2018-04-11T05:30:54.160Z,91.70
2018-04-11T05:33:23.019Z,91.60
2018-04-11T05:36:05.147Z,91.60
2018-04-11T05:38:34.618Z,91.40
2018-04-11T05:41:03.591Z,91.50
2018-04-11T05:43:33.682Z,91.90
2018-04-11T05:46:03.015Z,91.30
2018-04-11T05:51:05.162Z,90.90
2018-04-11T05:53:34.442Z,90.80
2018-04-11T05:56:06.670Z,90.60
2018-04-11T05:58:36.227Z,90.90
2018-04-11T06:01:18.771Z,90.20
2018-04-11T06:03:47.438Z,89.80
2018-04-11T06:06:17.118Z,90.10
2018-04-11T06:08:46.487Z,89.50
2018-04-11T06:11:16.532Z,90.00
2018-04-11T06:13:45.619Z,90.50
2018-04-11T06:16:18.218Z,90.80
2018-04-11T06:18:47.609Z,89.60
2018-04-11T06:21:28.822Z,90.00
2018-04-11T06:23:58.155Z,90.30
2018-04-11T06:26:27.012Z,90.50
2018-04-11T06:28:55.617Z,90.80
2018-04-11T06:31:24.527Z,91.10
2018-04-11T06:33:53.384Z,91.30
2018-04-11T06:36:26.542Z,92.10
2018-04-11T06:38:55.153Z,92.30
2018-04-11T06:46:30.380Z,91.20
2018-04-11T06:49:00.143Z,91.10
2018-04-11T06:54:02.059Z,90.80
2018-04-11T06:56:36.020Z,90.90
2018-04-11T06:59:05.405Z,91.00
2018-04-11T07:01:38.056Z,91.40
2018-04-11T07:04:06.927Z,90.40
2018-04-11T07:06:49.041Z,90.20
2018-04-11T07:09:18.675Z,89.80
2018-04-11T07:11:47.318Z,90.00
2018-04-11T07:14:15.934Z,90.10
2018-04-11T07:21:56.419Z,90.20
2018-04-11T07:24:26.639Z,90.10
2018-04-11T07:26:56.008Z,90.30
2018-04-11T07:29:25.399Z,90.60
2018-04-11T07:31:55.456Z,90.10
2018-04-11T07:36:55.580Z,89.20
2018-04-11T07:39:25.325Z,89.50
2018-04-11T07:41:59.502Z,89.90
2018-04-11T07:44:28.323Z,89.50
2018-04-11T07:47:00.531Z,89.30
2018-04-11T07:49:30.261Z,89.80
2018-04-11T07:52:12.064Z,90.30
2018-04-11T07:54:40.925Z,90.80
2018-04-11T07:57:10.276Z,90.90
2018-04-11T07:59:38.904Z,90.40
2018-04-11T08:02:09.004Z,89.90
2018-04-11T08:07:11.771Z,89.70
2018-04-11T08:12:13.778Z,90.30
2018-04-11T08:14:43.223Z,90.80
2018-04-11T08:17:15.914Z,90.50
2018-04-11T08:19:45.399Z,90.10
2018-04-11T08:24:47.436Z,90.00
2018-04-11T08:27:28.738Z,90.00
2018-04-11T08:29:57.629Z,89.30
2018-04-11T08:32:26.267Z,89.70
2018-04-11T08:37:25.603Z,90.00
2018-04-11T08:39:55.395Z,89.20
2018-04-11T08:42:27.354Z,88.30
2018-04-11T08:44:56.709Z,88.50
2018-04-11T08:47:29.809Z,89.60
2018-04-11T08:49:59.187Z,90.00
2018-04-11T08:52:30.800Z,90.00
2018-04-11T08:55:00.639Z,90.20
2018-04-11T08:57:33.615Z,90.40
2018-04-11T09:00:03.357Z,90.00
2018-04-11T09:02:35.626Z,88.90
2018-04-11T09:05:04.632Z,88.70
2018-04-11T09:07:38.127Z,90.00
2018-04-11T09:10:07.864Z,88.80
2018-04-11T09:12:40.687Z,88.80
2018-04-11T09:15:09.272Z,89.30
2018-04-11T09:17:51.183Z,90.00
2018-04-11T09:20:20.831Z,89.10
2018-04-11T09:22:50.570Z,88.60
2018-04-11T09:25:20.383Z,88.70
2018-04-11T09:27:50.815Z,88.30
2018-04-11T09:30:20.963Z,88.80
2018-04-11T09:32:50.653Z,88.80
2018-04-11T09:35:19.513Z,90.10
2018-04-11T09:37:52.342Z,89.50
2018-04-11T09:40:20.923Z,89.10
2018-04-11T09:50:39.955Z,89.60
2018-04-11T09:58:08.666Z,90.10
2018-04-11T10:00:38.139Z,90.80
2018-04-11T10:03:07.699Z,90.90
2018-04-11T10:05:36.619Z,90.90
2018-04-11T10:08:09.212Z,90.00
2018-04-11T10:10:37.839Z,90.00
2018-04-11T10:13:11.839Z,90.40
2018-04-11T10:23:16.391Z,91.30
2018-04-11T10:25:45.432Z,91.00
2018-04-11T10:28:18.998Z,90.70
2018-04-11T10:30:48.398Z,91.20
2018-04-11T10:35:48.319Z,90.90
2018-04-11T10:38:31.261Z,91.00
2018-04-11T10:41:00.992Z,90.80
2018-04-11T10:43:30.384Z,91.00
2018-04-11T10:45:59.056Z,90.80
2018-04-11T10:48:28.510Z,90.70
2018-04-11T10:50:57.487Z,90.40
2018-04-11T10:53:29.768Z,90.20
2018-04-11T10:55:59.563Z,90.30
2018-04-11T10:58:31.909Z,90.20
2018-04-11T11:03:34.688Z,90.00
2018-04-11T11:08:36.151Z,90.00
2018-04-11T11:11:05.531Z,90.30
2018-04-11T11:13:46.983Z,90.00
2018-04-11T11:16:16.673Z,90.00
2018-04-11T11:18:46.457Z,89.90
2018-04-11T11:23:44.959Z,89.50
2018-04-11T11:26:13.679Z,89.40
2018-04-11T11:28:46.151Z,89.80
2018-04-11T11:31:16.025Z,88.30
2018-04-11T11:33:48.565Z,88.70
2018-04-11T11:36:18.705Z,88.20
2018-04-11T11:38:51.540Z,86.50
2018-04-11T11:41:20.578Z,87.00
2018-04-11T11:43:53.743Z,86.60
2018-04-11T11:46:23.100Z,85.40
2018-04-11T11:49:04.672Z,85.80
2018-04-11T11:51:33.305Z,83.40
2018-04-11T11:54:03.055Z,83.40
2018-04-11T11:56:32.859Z,81.80
2018-04-11T11:59:01.483Z,82.10
2018-04-11T12:04:04.297Z,79.70
2018-04-11T12:06:34.320Z,78.60
2018-04-11T12:09:07.063Z,80.10
2018-04-11T12:14:10.031Z,77.90
2018-04-11T12:16:39.090Z,79.00
2018-04-11T12:19:11.811Z,77.40
2018-04-11T12:21:40.384Z,77.50
2018-04-11T12:24:14.815Z,76.60
2018-04-11T12:26:43.627Z,78.30
2018-04-11T12:29:16.168Z,80.50
2018-04-11T12:31:45.997Z,76.30
2018-04-11T12:34:19.047Z,76.50
2018-04-11T12:36:47.636Z,77.20
2018-04-11T12:39:20.064Z,79.00
2018-04-11T12:44:22.341Z,79.30
2018-04-11T12:49:23.976Z,77.50
2018-04-11T12:51:52.691Z,76.30
2018-04-11T12:54:26.205Z,78.50
2018-04-11T12:56:55.571Z,77.70
2018-04-11T13:01:58.264Z,80.90
2018-04-11T13:04:31.614Z,79.90
2018-04-11T13:07:00.598Z,80.80
2018-04-11T13:09:32.723Z,79.60
2018-04-11T13:12:02.986Z,80.50
2018-04-11T13:14:34.943Z,80.20
2018-04-11T13:19:37.472Z,80.80
2018-04-11T13:22:06.837Z,80.40
2018-04-11T13:24:48.805Z,81.30
2018-04-11T13:27:17.402Z,82.00
2018-04-11T13:29:46.780Z,81.50
2018-04-11T13:32:16.351Z,83.00
2018-04-11T13:37:15.974Z,80.80
2018-04-11T13:39:49.399Z,81.20
2018-04-11T13:42:18.426Z,82.00
2018-04-11T13:44:49.216Z,83.20
2018-04-11T13:47:18.350Z,81.10
2018-04-11T13:49:52.067Z,81.40
2018-04-11T13:52:20.692Z,82.10
2018-04-11T13:55:02.879Z,80.70
2018-04-11T13:57:32.311Z,79.10
2018-04-11T14:00:01.122Z,80.30
2018-04-11T14:02:30.524Z,79.70
2018-04-11T14:07:29.298Z,80.10
2018-04-11T14:10:03.920Z,80.10
2018-04-11T14:12:33.094Z,78.00
2018-04-11T14:15:05.496Z,79.20
2018-04-11T14:20:07.727Z,75.80
2018-04-11T14:22:36.326Z,76.00
2018-04-11T14:25:18.971Z,74.60
2018-04-11T14:27:48.012Z,76.10
2018-04-11T14:30:17.080Z,76.10
2018-04-11T14:32:46.275Z,76.70
2018-04-11T14:35:17.672Z,75.00
2018-04-11T14:37:47.861Z,74.00
2018-04-11T14:40:18.757Z,76.20
2018-04-11T14:45:22.204Z,75.10
2018-04-11T14:47:52.136Z,76.60
2018-04-11T14:50:22.436Z,78.50
2018-04-11T14:52:51.058Z,79.40
2018-04-11T14:55:25.170Z,78.80
2018-04-11T15:00:36.059Z,79.30
2018-04-11T15:03:05.863Z,76.90
2018-04-11T15:05:35.627Z,76.40
2018-04-11T15:08:04.299Z,76.20
2018-04-11T15:10:33.339Z,76.70
2018-04-11T15:13:01.943Z,78.70
2018-04-11T15:15:33.755Z,79.00
2018-04-11T15:20:36.328Z,78.50
2018-04-11T15:23:06.090Z,78.90
2018-04-11T15:25:39.792Z,79.10
2018-04-11T15:28:09.061Z,78.60
2018-04-11T15:30:40.596Z,77.40
2018-04-11T15:33:10.684Z,77.60
2018-04-11T15:35:42.545Z,74.90
2018-04-11T15:38:12.290Z,76.30
2018-04-11T15:40:53.965Z,77.70
2018-04-11T15:43:23.684Z,79.60
2018-04-11T15:45:52.287Z,80.40
2018-04-11T15:48:20.944Z,79.00
2018-04-11T15:50:50.316Z,80.10
2018-04-11T15:53:18.894Z,81.50
2018-04-11T15:56:00.703Z,82.30
2018-04-11T15:58:29.554Z,81.80
2018-04-11T16:00:58.211Z,81.10
2018-04-11T16:03:27.575Z,82.30
2018-04-11T16:05:56.723Z,83.10
2018-04-11T16:08:26.475Z,82.50
2018-04-11T16:10:59.855Z,81.40
2018-04-11T16:13:28.818Z,82.10
2018-04-11T16:16:02.304Z,82.10
2018-04-11T16:18:31.707Z,83.00
2018-04-11T16:21:13.140Z,81.60
2018-04-11T16:23:42.291Z,80.80
2018-04-11T16:26:10.974Z,81.00
2018-04-11T16:28:40.683Z,80.50
2018-04-11T16:31:11.745Z,79.70
2018-04-11T16:33:41.728Z,80.60
2018-04-11T16:36:13.109Z,80.20
2018-04-11T16:41:15.136Z,77.20
2018-04-11T16:46:17.585Z,76.20
2018-04-11T16:48:46.664Z,76.60
2018-04-11T16:51:19.612Z,77.50
2018-04-11T16:53:48.272Z,78.60
2018-04-11T16:56:21.400Z,79.30
2018-04-11T16:58:51.088Z,80.10
2018-04-11T17:01:25.079Z,80.30
2018-04-11T17:03:54.327Z,80.00
2018-04-11T17:06:27.421Z,81.50
2018-04-11T17:08:56.259Z,81.20
2018-04-11T17:13:56.174Z,81.00
2018-04-11T17:16:30.439Z,81.30
2018-04-11T17:19:00.645Z,81.10
2018-04-11T17:24:53.203Z,82.40
2018-04-11T17:30:38.695Z,82.10
2018-04-11T17:33:07.339Z,82.60
2018-04-11T17:35:40.667Z,83.30
2018-04-11T17:40:42.142Z,83.70
2018-04-11T17:43:11.880Z,83.80
2018-04-11T17:45:43.662Z,84.80
2018-04-11T17:50:47.074Z,84.50
2018-04-11T17:53:15.788Z,84.50
2018-04-11T17:55:47.796Z,84.70
2018-04-11T17:58:16.816Z,84.90
2018-04-11T18:00:58.125Z,85.10
2018-04-11T18:03:27.132Z,85.50
2018-04-11T18:05:57.711Z,85.60
2018-04-11T18:10:56.512Z,87.90
2018-04-11T18:13:25.535Z,86.20
2018-04-11T18:16:06.567Z,86.40
2018-04-11T18:18:36.653Z,86.40
2018-04-11T18:21:05.720Z,86.40
2018-04-11T18:23:35.859Z,86.60
2018-04-11T18:26:04.728Z,86.90
2018-04-11T18:28:34.071Z,88.00
2018-04-11T18:33:36.100Z,88.20
2018-04-11T18:41:11.564Z,88.30
2018-04-11T18:43:41.646Z,88.50
2018-04-11T18:46:15.191Z,88.80
2018-04-11T18:51:17.877Z,89.30
2018-04-11T18:53:47.050Z,89.50
2018-04-11T18:56:18.943Z,90.10
2018-04-11T18:58:47.612Z,89.60
2018-04-11T19:01:21.356Z,89.80
2018-04-11T19:03:51.466Z,90.30
2018-04-11T19:06:22.066Z,90.10
2018-04-11T19:08:50.716Z,90.20
2018-04-11T19:16:26.572Z,90.90
2018-04-11T19:21:28.970Z,90.70
2018-04-11T19:26:32.265Z,91.20
2018-04-11T19:29:00.881Z,91.40
2018-04-11T19:31:33.857Z,91.50
2018-04-11T19:34:02.767Z,91.50
2018-04-11T19:36:36.728Z,92.00
2018-04-11T19:39:06.867Z,91.70
2018-04-11T19:41:37.864Z,91.50
2018-04-11T19:44:06.498Z,91.90
2018-04-11T19:46:48.352Z,91.90
2018-04-11T19:49:18.233Z,92.30
2018-04-11T19:51:46.868Z,92.00
2018-04-11T19:54:15.855Z,92.00
2018-04-11T19:56:46.571Z,92.10
2018-04-11T19:59:15.601Z,92.10
2018-04-11T20:01:47.339Z,92.20
2018-04-11T20:04:16.167Z,92.20
2018-04-11T20:06:50.308Z,92.20
2018-04-11T20:12:00.993Z,92.30
2018-04-11T20:16:59.617Z,92.40
2018-04-11T20:19:28.297Z,92.40
2018-04-11T20:21:57.712Z,92.50
2018-04-11T20:24:27.514Z,92.60
2018-04-11T20:27:08.815Z,91.30
2018-04-11T20:29:37.694Z,92.90
2018-04-11T20:34:35.900Z,92.90
2018-04-11T20:37:06.494Z,93.00
2018-04-11T20:39:35.823Z,93.00
2018-04-11T20:42:08.217Z,93.10
2018-04-11T20:44:36.799Z,93.10
2018-04-11T20:47:18.526Z,93.10
2018-04-11T20:49:47.495Z,93.10
2018-04-11T20:52:16.532Z,93.20
2018-04-11T20:54:46.873Z,93.10
2018-04-11T20:57:17.241Z,93.10
2018-04-11T20:59:46.060Z,93.20
2018-04-11T21:04:45.766Z,93.10
2018-04-11T21:07:20.223Z,93.10
2018-04-11T21:09:48.792Z,93.10
2018-04-11T21:12:22.665Z,93.10
2018-04-11T21:14:51.315Z,93.00
2018-04-11T21:17:24.402Z,92.90
2018-04-11T21:19:54.473Z,92.90
2018-04-11T21:22:26.795Z,92.90
2018-04-11T21:27:29.271Z,92.90
2018-04-11T21:29:58.099Z,92.90
2018-04-11T21:32:39.139Z,93.00
2018-04-11T21:35:08.034Z,93.00
2018-04-11T21:37:36.607Z,92.90
2018-04-11T21:40:05.596Z,92.90
2018-04-11T21:42:35.566Z,92.90
2018-04-11T21:45:04.958Z,92.90
2018-04-11T21:47:38.223Z,93.30
2018-04-11T21:50:07.111Z,93.10
2018-04-11T21:52:40.387Z,93.10
2018-04-11T21:57:43.676Z,93.80
2018-04-11T22:00:12.941Z,93.50
2018-04-11T22:02:56.063Z,93.40
2018-04-11T22:05:25.235Z,93.50
2018-04-11T22:07:53.935Z,93.90
2018-04-11T22:10:23.338Z,93.40
2018-04-11T22:12:51.965Z,93.40
2018-04-11T22:17:53.299Z,93.20
2018-04-11T22:20:22.197Z,93.20
2018-04-11T22:22:56.421Z,93.10
2018-04-11T22:25:25.771Z,92.90
2018-04-11T22:27:58.237Z,93.20
2018-04-11T22:30:27.155Z,93.20
2018-04-11T22:33:00.559Z,93.10
2018-04-11T22:35:30.643Z,93.00
2018-04-11T22:38:12.003Z,93.00
2018-04-11T22:40:42.079Z,93.00
2018-04-11T22:45:40.953Z,93.30
2018-04-11T22:48:10.789Z,93.30
2018-04-11T22:50:39.878Z,93.30
2018-04-11T22:55:39.526Z,93.10
2018-04-11T22:58:21.124Z,93.00
2018-04-11T23:03:19.703Z,92.90
2018-04-11T23:05:48.386Z,92.70
2018-04-11T23:08:17.723Z,93.50
2018-04-11T23:13:20.253Z,92.90
2018-04-11T23:15:49.985Z,93.10
2018-04-11T23:18:22.029Z,93.10
2018-04-11T23:20:52.000Z,93.00
2018-04-11T23:25:54.146Z,92.90
2018-04-11T23:30:55.984Z,92.70
2018-04-11T23:35:57.805Z,92.80
2018-04-11T23:38:30.634Z,93.10
2018-04-11T23:40:59.669Z,93.10
2018-04-11T23:43:35.082Z,93.10
2018-04-11T23:46:05.805Z,93.60
2018-04-11T23:48:35.883Z,93.40
2018-04-11T23:51:04.519Z,93.50
2018-04-11T23:53:45.950Z,92.80
2018-04-11T23:56:14.740Z,93.50
2018-04-11T23:58:44.467Z,93.60
